<?xml version='1.0' encoding='UTF-8'?>
<gpx xmlns="http://www.topografix.com/GPX/1/1" creator="www.balnam.be" version="1.1" xmlns:xsi="http://www.w3.org/2001/XMLSchema-instance" xsi:schemaLocation="http://www.topografix.com/GPX/1/1 http://www.topografix.com/GPX/1/1/gpx.xsd">
<trk>
<name>hfuwa1</name>
<cmt>v</cmt>
<desc>Wagnelée Chemin n°1 </desc>
<link href="https://chemins.be/wagnelee/chemin/1"/><trkseg>
<trkpt lat="50.533276" lon="4.543131"><time>2026-05-04T21:13:49Z</time></trkpt>
<trkpt lat="50.530918" lon="4.533805"><time>2026-05-04T21:23:49Z</time></trkpt>
<trkpt lat="50.530298" lon="4.532302"><time>2026-05-04T21:33:49Z</time></trkpt>
<trkpt lat="50.529475" lon="4.529337"><time>2026-05-04T21:43:49Z</time></trkpt>
<trkpt lat="50.529620" lon="4.528816"><time>2026-05-04T21:53:49Z</time></trkpt>
<trkpt lat="50.529468" lon="4.528082"><time>2026-05-04T22:03:49Z</time></trkpt>
</trkseg>
</trk>
<trk>
<name>hfuwa10</name>
<cmt>r</cmt>
<desc>Wagnelée Sentier n°10 Rue de l'étang</desc>
<link href="https://chemins.be/wagnelee/sentier/10"/><trkseg>
<trkpt lat="50.525317" lon="4.533145"><time>2026-05-04T21:13:49Z</time></trkpt>
<trkpt lat="50.525594" lon="4.533978"><time>2026-05-04T21:23:49Z</time></trkpt>
<trkpt lat="50.525792" lon="4.534190"><time>2026-05-04T21:33:49Z</time></trkpt>
</trkseg></trk>
<trk>
<name>hfuwa10</name>
<cmt>v</cmt>
<desc>Wagnelée Sentier n°10 Rue de l'étang</desc>
<link href="https://chemins.be/wagnelee/sentier/10"/><trkseg>
<trkpt lat="50.525792" lon="4.534190"><time>2026-05-04T21:33:49Z</time></trkpt>
<trkpt lat="50.526456" lon="4.535067"><time>2026-05-04T21:43:49Z</time></trkpt>
<trkpt lat="50.528357" lon="4.538163"><time>2026-05-04T21:53:49Z</time></trkpt>
<trkpt lat="50.529956" lon="4.538803"><time>2026-05-04T22:03:49Z</time></trkpt>
</trkseg></trk>
<trk>
<name>hfuwa10</name>
<cmt>s</cmt>
<desc>Wagnelée Sentier n°10 Rue de l'étang</desc>
<link href="https://chemins.be/wagnelee/sentier/10"/><trkseg>
<trkpt lat="50.529956" lon="4.538803"><time>2026-05-04T22:03:49Z</time></trkpt>
<trkpt lat="50.533097" lon="4.542707"><time>2026-05-04T22:13:49Z</time></trkpt>
</trkseg>
</trk>
<trk>
<name>hfuwa11</name>
<cmt>v</cmt>
<desc>Wagnelée Sentier n°11 </desc>
<link href="https://chemins.be/wagnelee/sentier/11"/><trkseg>
<trkpt lat="50.525819" lon="4.534049"><time>2026-05-04T21:13:49Z</time></trkpt>
<trkpt lat="50.525152" lon="4.535147"><time>2026-05-04T21:23:49Z</time></trkpt>
<trkpt lat="50.524175" lon="4.538980"><time>2026-05-04T21:33:49Z</time></trkpt>
<trkpt lat="50.523878" lon="4.539754"><time>2026-05-04T21:43:49Z</time></trkpt>
</trkseg></trk>
<trk>
<name>hfuwa11</name>
<cmt>q</cmt>
<desc>Wagnelée Sentier n°11 </desc>
<link href="https://chemins.be/wagnelee/sentier/11"/><trkseg>
<trkpt lat="50.523878" lon="4.539754"><time>2026-05-04T21:43:49Z</time></trkpt>
<trkpt lat="50.523666" lon="4.543110"><time>2026-05-04T21:53:49Z</time></trkpt>
</trkseg>
</trk>
<trk>
<name>hfuwa12</name>
<cmt>v</cmt>
<desc>Wagnelée Sentier n°12 </desc>
<link href="https://chemins.be/wagnelee/sentier/12"/><trkseg>
<trkpt lat="50.521940" lon="4.536701"><time>2026-05-04T21:13:49Z</time></trkpt>
<trkpt lat="50.522165" lon="4.536913"><time>2026-05-04T21:23:49Z</time></trkpt>
</trkseg></trk>
<trk>
<name>hfuwa12</name>
<cmt>d</cmt>
<desc>Wagnelée Sentier n°12 </desc>
<link href="https://chemins.be/wagnelee/sentier/12"/><trkseg>
<trkpt lat="50.522165" lon="4.536913"><time>2026-05-04T21:23:49Z</time></trkpt>
<trkpt lat="50.522784" lon="4.537466"><time>2026-05-04T21:33:49Z</time></trkpt>
<trkpt lat="50.523717" lon="4.538668"><time>2026-05-04T21:43:49Z</time></trkpt>
<trkpt lat="50.523779" lon="4.539726"><time>2026-05-04T21:53:49Z</time></trkpt>
</trkseg>
</trk>
<trk>
<name>hfuwa13</name>
<cmt>v</cmt>
<desc>Wagnelée Sentier n°13 Rue de l'étang</desc>
<link href="https://chemins.be/wagnelee/sentier/13"/><trkseg>
<trkpt lat="50.522174" lon="4.536913"><time>2026-05-04T21:13:49Z</time></trkpt>
<trkpt lat="50.522939" lon="4.535746"><time>2026-05-04T21:23:49Z</time></trkpt>
<trkpt lat="50.523687" lon="4.534888"><time>2026-05-04T21:33:49Z</time></trkpt>
<trkpt lat="50.524660" lon="4.533721"><time>2026-05-04T21:43:49Z</time></trkpt>
<trkpt lat="50.524740" lon="4.533764"><time>2026-05-04T21:53:49Z</time></trkpt>
<trkpt lat="50.525326" lon="4.533202"><time>2026-05-04T22:03:49Z</time></trkpt>
<trkpt lat="50.525621" lon="4.533950"><time>2026-05-04T22:13:49Z</time></trkpt>
<trkpt lat="50.525828" lon="4.534162"><time>2026-05-04T22:23:49Z</time></trkpt>
</trkseg></trk>
<trk>
<name>hfuwa13</name>
<cmt>q</cmt>
<desc>Wagnelée Sentier n°13 Rue de l'étang</desc>
<link href="https://chemins.be/wagnelee/sentier/13"/><trkseg>
<trkpt lat="50.525828" lon="4.534162"><time>2026-05-04T22:23:49Z</time></trkpt>
<trkpt lat="50.526476" lon="4.533361"><time>2026-05-04T22:33:49Z</time></trkpt>
<trkpt lat="50.527196" lon="4.532602"><time>2026-05-04T22:43:49Z</time></trkpt>
<trkpt lat="50.527718" lon="4.532194"><time>2026-05-04T22:53:49Z</time></trkpt>
<trkpt lat="50.529587" lon="4.532779"><time>2026-05-04T23:03:49Z</time></trkpt>
<trkpt lat="50.530908" lon="4.533801"><time>2026-05-04T23:13:49Z</time></trkpt>
</trkseg></trk>
<trk>
<name>hfuwa13</name>
<cmt>v</cmt>
<desc>Wagnelée Sentier n°13 Rue de l'étang</desc>
<link href="https://chemins.be/wagnelee/sentier/13"/><trkseg>
<trkpt lat="50.530908" lon="4.533801"><time>2026-05-04T23:13:49Z</time></trkpt>
<trkpt lat="50.531213" lon="4.535039"><time>2026-05-04T23:23:49Z</time></trkpt>
</trkseg></trk>
<trk>
<name>hfuwa13</name>
<cmt>d</cmt>
<desc>Wagnelée Sentier n°13 Rue de l'étang</desc>
<link href="https://chemins.be/wagnelee/sentier/13"/><trkseg>
<trkpt lat="50.531213" lon="4.535039"><time>2026-05-04T23:23:49Z</time></trkpt>
<trkpt lat="50.531981" lon="4.534606"><time>2026-05-04T23:33:49Z</time></trkpt>
</trkseg>
</trk>
<trk>
<name>hfuwa14</name>
<cmt>r</cmt>
<desc>Wagnelée Sentier n°14 Rue François Demoiny</desc>
<link href="https://chemins.be/wagnelee/sentier/14"/><trkseg>
<trkpt lat="50.525133" lon="4.529337"><time>2026-05-04T21:13:49Z</time></trkpt>
<trkpt lat="50.524822" lon="4.526698"><time>2026-05-04T21:23:49Z</time></trkpt>
<trkpt lat="50.524905" lon="4.525444"><time>2026-05-04T21:33:49Z</time></trkpt>
</trkseg></trk>
<trk>
<name>hfuwa14</name>
<cmt>v</cmt>
<desc>Wagnelée Sentier n°14 Rue François Demoiny</desc>
<link href="https://chemins.be/wagnelee/sentier/14"/><trkseg>
<trkpt lat="50.524905" lon="4.525444"><time>2026-05-04T21:33:49Z</time></trkpt>
<trkpt lat="50.525006" lon="4.523780"><time>2026-05-04T21:43:49Z</time></trkpt>
<trkpt lat="50.525082" lon="4.520832"><time>2026-05-04T21:53:49Z</time></trkpt>
<trkpt lat="50.526210" lon="4.517197"><time>2026-05-04T22:03:49Z</time></trkpt>
</trkseg>
</trk>
<trk>
<name>hfuwa15</name>
<cmt>s</cmt>
<desc>Wagnelée Sentier n°15 </desc>
<link href="https://chemins.be/wagnelee/sentier/15"/><trkseg>
<trkpt lat="50.516413" lon="4.531906"><time>2026-05-04T21:13:49Z</time></trkpt>
<trkpt lat="50.517716" lon="4.529241"><time>2026-05-04T21:23:49Z</time></trkpt>
<trkpt lat="50.520226" lon="4.528432"><time>2026-05-04T21:33:49Z</time></trkpt>
</trkseg></trk>
<trk>
<name>hfuwa15</name>
<cmt>v</cmt>
<desc>Wagnelée Sentier n°15 </desc>
<link href="https://chemins.be/wagnelee/sentier/15"/><trkseg>
<trkpt lat="50.520226" lon="4.528432"><time>2026-05-04T21:33:49Z</time></trkpt>
<trkpt lat="50.520855" lon="4.528814"><time>2026-05-04T21:43:49Z</time></trkpt>
<trkpt lat="50.521168" lon="4.529619"><time>2026-05-04T21:53:49Z</time></trkpt>
</trkseg></trk>
<trk>
<name>hfuwa15</name>
<cmt>d</cmt>
<desc>Wagnelée Sentier n°15 </desc>
<link href="https://chemins.be/wagnelee/sentier/15"/><trkseg>
<trkpt lat="50.521168" lon="4.529619"><time>2026-05-04T21:53:49Z</time></trkpt>
<trkpt lat="50.522589" lon="4.530059"><time>2026-05-04T22:03:49Z</time></trkpt>
<trkpt lat="50.522526" lon="4.529497"><time>2026-05-04T22:13:49Z</time></trkpt>
<trkpt lat="50.524540" lon="4.529024"><time>2026-05-04T22:23:49Z</time></trkpt>
<trkpt lat="50.525179" lon="4.528886"><time>2026-05-04T22:33:49Z</time></trkpt>
</trkseg></trk>
<trk>
<name>hfuwa15</name>
<cmt>v</cmt>
<desc>Wagnelée Sentier n°15 </desc>
<link href="https://chemins.be/wagnelee/sentier/15"/><trkseg>
<trkpt lat="50.525179" lon="4.528886"><time>2026-05-04T22:33:49Z</time></trkpt>
<trkpt lat="50.525583" lon="4.528845"><time>2026-05-04T22:43:49Z</time></trkpt>
</trkseg></trk>
<trk>
<name>hfuwa15</name>
<cmt>d</cmt>
<desc>Wagnelée Sentier n°15 </desc>
<link href="https://chemins.be/wagnelee/sentier/15"/><trkseg>
<trkpt lat="50.525583" lon="4.528845"><time>2026-05-04T22:43:49Z</time></trkpt>
<trkpt lat="50.526632" lon="4.528854"><time>2026-05-04T22:53:49Z</time></trkpt>
<trkpt lat="50.528358" lon="4.529720"><time>2026-05-04T23:03:49Z</time></trkpt>
</trkseg>
</trk>
<trk>
<name>hfuwa16</name>
<cmt>s</cmt>
<desc>Wagnelée Sentier n°16 </desc>
<link href="https://chemins.be/wagnelee/sentier/16"/><trkseg>
<trkpt lat="50.522136" lon="4.531921"><time>2026-05-04T21:13:49Z</time></trkpt>
<trkpt lat="50.522353" lon="4.531104"><time>2026-05-04T21:23:49Z</time></trkpt>
<trkpt lat="50.522579" lon="4.530287"><time>2026-05-04T21:33:49Z</time></trkpt>
<trkpt lat="50.522578" lon="4.530038"><time>2026-05-04T21:43:49Z</time></trkpt>
</trkseg></trk>
<trk>
<name>hfuwa16</name>
<cmt>d</cmt>
<desc>Wagnelée Sentier n°16 </desc>
<link href="https://chemins.be/wagnelee/sentier/16"/><trkseg>
<trkpt lat="50.522578" lon="4.530038"><time>2026-05-04T21:43:49Z</time></trkpt>
<trkpt lat="50.522539" lon="4.529489"><time>2026-05-04T21:53:49Z</time></trkpt>
</trkseg></trk>
<trk>
<name>hfuwa16</name>
<cmt>s</cmt>
<desc>Wagnelée Sentier n°16 </desc>
<link href="https://chemins.be/wagnelee/sentier/16"/><trkseg>
<trkpt lat="50.522539" lon="4.529489"><time>2026-05-04T21:53:49Z</time></trkpt>
<trkpt lat="50.522464" lon="4.527457"><time>2026-05-04T22:03:49Z</time></trkpt>
<trkpt lat="50.522235" lon="4.524969"><time>2026-05-04T22:13:49Z</time></trkpt>
<trkpt lat="50.521339" lon="4.522865"><time>2026-05-04T22:23:49Z</time></trkpt>
<trkpt lat="50.520821" lon="4.520579"><time>2026-05-04T22:33:49Z</time></trkpt>
<trkpt lat="50.520940" lon="4.518619"><time>2026-05-04T22:43:49Z</time></trkpt>
</trkseg>
</trk>
<trk>
<name>hfuwa17</name>
<cmt>v</cmt>
<desc>Wagnelée Sentier n°17 </desc>
<link href="https://chemins.be/wagnelee/sentier/17"/><trkseg>
<trkpt lat="50.520352" lon="4.528319"><time>2026-05-04T21:13:49Z</time></trkpt>
<trkpt lat="50.517999" lon="4.526126"><time>2026-05-04T21:23:49Z</time></trkpt>
<trkpt lat="50.517497" lon="4.525504"><time>2026-05-04T21:33:49Z</time></trkpt>
<trkpt lat="50.516654" lon="4.523837"><time>2026-05-04T21:43:49Z</time></trkpt>
</trkseg></trk>
<trk>
<name>hfuwa17</name>
<cmt>d</cmt>
<desc>Wagnelée Sentier n°17 </desc>
<link href="https://chemins.be/wagnelee/sentier/17"/><trkseg>
<trkpt lat="50.516654" lon="4.523837"><time>2026-05-04T21:43:49Z</time></trkpt>
<trkpt lat="50.514485" lon="4.518585"><time>2026-05-04T21:53:49Z</time></trkpt>
</trkseg>
</trk>
<trk>
<name>hfuwa18</name>
<cmt>v</cmt>
<desc>Wagnelée Sentier n°18 </desc>
<link href="https://chemins.be/wagnelee/sentier/18"/><trkseg>
<trkpt lat="50.522826" lon="4.533038"><time>2026-05-04T21:13:49Z</time></trkpt>
<trkpt lat="50.522277" lon="4.533741"><time>2026-05-04T21:23:49Z</time></trkpt>
<trkpt lat="50.521799" lon="4.534684"><time>2026-05-04T21:33:49Z</time></trkpt>
<trkpt lat="50.521060" lon="4.536402"><time>2026-05-04T21:43:49Z</time></trkpt>
<trkpt lat="50.519486" lon="4.538740"><time>2026-05-04T21:53:49Z</time></trkpt>
<trkpt lat="50.518399" lon="4.541596"><time>2026-05-04T22:03:49Z</time></trkpt>
</trkseg></trk>
<trk>
<name>hfuwa18</name>
<cmt>b</cmt>
<desc>Wagnelée Sentier n°18 </desc>
<link href="https://chemins.be/wagnelee/sentier/18"/><trkseg>
<trkpt lat="50.518399" lon="4.541596"><time>2026-05-04T22:03:49Z</time></trkpt>
<trkpt lat="50.518033" lon="4.542333"><time>2026-05-04T22:13:49Z</time></trkpt>
</trkseg>
</trk>
<trk>
<name>hfuwa19</name>
<cmt>v</cmt>
<desc>Wagnelée Sentier n°19 Rue Longpré / Sentier de Beurre sans Croûte</desc>
<link href="https://chemins.be/wagnelee/sentier/19"/><trkseg>
<trkpt lat="50.516289" lon="4.540474"><time>2026-05-04T21:13:49Z</time></trkpt>
<trkpt lat="50.516092" lon="4.539937"><time>2026-05-04T21:23:49Z</time></trkpt>
<trkpt lat="50.515922" lon="4.539556"><time>2026-05-04T21:33:49Z</time></trkpt>
<trkpt lat="50.516030" lon="4.539119"><time>2026-05-04T21:43:49Z</time></trkpt>
<trkpt lat="50.515421" lon="4.537651"><time>2026-05-04T21:53:49Z</time></trkpt>
</trkseg></trk>
<trk>
<name>hfuwa19</name>
<cmt>b</cmt>
<desc>Wagnelée Sentier n°19 Rue Longpré / Sentier de Beurre sans Croûte</desc>
<link href="https://chemins.be/wagnelee/sentier/19"/><trkseg>
<trkpt lat="50.515421" lon="4.537651"><time>2026-05-04T21:53:49Z</time></trkpt>
<trkpt lat="50.515018" lon="4.536394"><time>2026-05-04T22:03:49Z</time></trkpt>
<trkpt lat="50.514660" lon="4.535702"><time>2026-05-04T22:13:49Z</time></trkpt>
<trkpt lat="50.514570" lon="4.535603"><time>2026-05-04T22:23:49Z</time></trkpt>
</trkseg>
</trk>
<trk>
<name>hfuwa2</name>
<cmt>r</cmt>
<desc>Wagnelée Chemin n°2 Rue de l'étang / Chemin de la truie qui fuit</desc>
<link href="https://chemins.be/wagnelee/chemin/2"/><trkseg>
<trkpt lat="50.524652" lon="4.532395"><time>2026-05-04T21:13:49Z</time></trkpt>
<trkpt lat="50.525317" lon="4.533046"><time>2026-05-04T21:23:49Z</time></trkpt>
</trkseg></trk>
<trk>
<name>hfuwa2</name>
<cmt>v</cmt>
<desc>Wagnelée Chemin n°2 Rue de l'étang / Chemin de la truie qui fuit</desc>
<link href="https://chemins.be/wagnelee/chemin/2"/><trkseg>
<trkpt lat="50.525317" lon="4.533046"><time>2026-05-04T21:23:49Z</time></trkpt>
<trkpt lat="50.526794" lon="4.531331"><time>2026-05-04T21:33:49Z</time></trkpt>
<trkpt lat="50.528378" lon="4.529799"><time>2026-05-04T21:43:49Z</time></trkpt>
<trkpt lat="50.529466" lon="4.529450"><time>2026-05-04T21:53:49Z</time></trkpt>
<trkpt lat="50.529602" lon="4.528816"><time>2026-05-04T22:03:49Z</time></trkpt>
<trkpt lat="50.529809" lon="4.528520"><time>2026-05-04T22:13:49Z</time></trkpt>
<trkpt lat="50.530061" lon="4.528324"><time>2026-05-04T22:23:49Z</time></trkpt>
</trkseg>
</trk>
<trk>
<name>hfuwa20</name>
<cmt>s</cmt>
<desc>Wagnelée Sentier n°20 Sentier du Pachis de Longpré</desc>
<link href="https://chemins.be/wagnelee/sentier/20"/><trkseg>
<trkpt lat="50.516178" lon="4.542560"><time>2026-05-04T21:13:49Z</time></trkpt>
<trkpt lat="50.516225" lon="4.541306"><time>2026-05-04T21:23:49Z</time></trkpt>
</trkseg></trk>
<trk>
<name>hfuwa20</name>
<cmt>d</cmt>
<desc>Wagnelée Sentier n°20 Sentier du Pachis de Longpré</desc>
<link href="https://chemins.be/wagnelee/sentier/20"/><trkseg>
<trkpt lat="50.516225" lon="4.541306"><time>2026-05-04T21:23:49Z</time></trkpt>
<trkpt lat="50.516459" lon="4.541053"><time>2026-05-04T21:33:49Z</time></trkpt>
<trkpt lat="50.516316" lon="4.540502"><time>2026-05-04T21:43:49Z</time></trkpt>
</trkseg></trk>
<trk>
<name>hfuwa20</name>
<cmt>v</cmt>
<desc>Wagnelée Sentier n°20 Sentier du Pachis de Longpré</desc>
<link href="https://chemins.be/wagnelee/sentier/20"/><trkseg>
<trkpt lat="50.516316" lon="4.540502"><time>2026-05-04T21:43:49Z</time></trkpt>
<trkpt lat="50.517360" lon="4.539505"><time>2026-05-04T21:53:49Z</time></trkpt>
<trkpt lat="50.518559" lon="4.537577"><time>2026-05-04T22:03:49Z</time></trkpt>
</trkseg></trk>
<trk>
<name>hfuwa20</name>
<cmt>s</cmt>
<desc>Wagnelée Sentier n°20 Sentier du Pachis de Longpré</desc>
<link href="https://chemins.be/wagnelee/sentier/20"/><trkseg>
<trkpt lat="50.518559" lon="4.537577"><time>2026-05-04T22:03:49Z</time></trkpt>
<trkpt lat="50.518964" lon="4.536973"><time>2026-05-04T22:13:49Z</time></trkpt>
<trkpt lat="50.519324" lon="4.536424"><time>2026-05-04T22:23:49Z</time></trkpt>
</trkseg>
</trk>
<trk>
<name>hfuwa21</name>
<cmt>d</cmt>
<desc>Wagnelée Sentier n°21 </desc>
<link href="https://chemins.be/wagnelee/sentier/21"/><trkseg>
<trkpt lat="50.517567" lon="4.539266"><time>2026-05-04T21:13:49Z</time></trkpt>
<trkpt lat="50.518619" lon="4.539143"><time>2026-05-04T21:23:49Z</time></trkpt>
<trkpt lat="50.519276" lon="4.538525"><time>2026-05-04T21:33:49Z</time></trkpt>
</trkseg>
</trk>
<trk>
<name>hfuwa22</name>
<cmt>s</cmt>
<desc>Wagnelée Sentier n°22 </desc>
<link href="https://chemins.be/wagnelee/sentier/22"/><trkseg>
<trkpt lat="50.516781" lon="4.542140"><time>2026-05-04T21:13:49Z</time></trkpt>
<trkpt lat="50.515811" lon="4.541530"><time>2026-05-04T21:23:49Z</time></trkpt>
</trkseg>
</trk>
<trk>
<name>hfuwa23</name>
<cmt>s</cmt>
<desc>Wagnelée Sentier n°23 Rue de l'Église</desc>
<link href="https://chemins.be/wagnelee/sentier/23"/><trkseg>
<trkpt lat="50.520807" lon="4.530972"><time>2026-05-04T21:13:49Z</time></trkpt>
<trkpt lat="50.521228" lon="4.531636"><time>2026-05-04T21:23:49Z</time></trkpt>
<trkpt lat="50.521695" lon="4.531948"><time>2026-05-04T21:33:49Z</time></trkpt>
<trkpt lat="50.521803" lon="4.531864"><time>2026-05-04T21:43:49Z</time></trkpt>
</trkseg>
</trk>
<trk>
<name>hfuwa24</name>
<cmt>s</cmt>
<desc>Wagnelée Sentier n°24 </desc>
<link href="https://chemins.be/wagnelee/sentier/24"/><trkseg>
<trkpt lat="50.520607" lon="4.531916"><time>2026-05-04T21:13:49Z</time></trkpt>
<trkpt lat="50.521130" lon="4.531156"><time>2026-05-04T21:23:49Z</time></trkpt>
</trkseg>
</trk>
<trk>
<name>hfuwa25</name>
<cmt>d</cmt>
<desc>Wagnelée Sentier n°25 </desc>
<link href="https://chemins.be/wagnelee/sentier/25"/><trkseg>
<trkpt lat="50.523492" lon="4.533111"><time>2026-05-04T21:13:49Z</time></trkpt>
<trkpt lat="50.524579" lon="4.533721"><time>2026-05-04T21:23:49Z</time></trkpt>
</trkseg>
</trk>
<trk>
<name>hfuwa26</name>
<cmt>v</cmt>
<desc>Wagnelée Sentier n°26 </desc>
<link href="https://chemins.be/wagnelee/sentier/26"/><trkseg>
<trkpt lat="50.523249" lon="4.533335"><time>2026-05-04T21:13:49Z</time></trkpt>
<trkpt lat="50.523483" lon="4.533096"><time>2026-05-04T21:23:49Z</time></trkpt>
<trkpt lat="50.524104" lon="4.532506"><time>2026-05-04T21:33:49Z</time></trkpt>
</trkseg>
</trk>
<trk>
<name>hfuwa27</name>
<cmt>q</cmt>
<desc>Wagnelée Sentier n°27 </desc>
<link href="https://chemins.be/wagnelee/sentier/27"/><trkseg>
<trkpt lat="50.524059" lon="4.532605"><time>2026-05-04T21:13:49Z</time></trkpt>
<trkpt lat="50.524328" lon="4.533057"><time>2026-05-04T21:23:49Z</time></trkpt>
<trkpt lat="50.524480" lon="4.533410"><time>2026-05-04T21:33:49Z</time></trkpt>
<trkpt lat="50.524570" lon="4.533664"><time>2026-05-04T21:43:49Z</time></trkpt>
</trkseg>
</trk>
<trk>
<name>hfuwa28</name>
<cmt>v</cmt>
<desc>Wagnelée Sentier n°28 </desc>
<link href="https://chemins.be/wagnelee/sentier/28"/><trkseg>
<trkpt lat="50.522495" lon="4.532360"><time>2026-05-04T21:13:49Z</time></trkpt>
<trkpt lat="50.522255" lon="4.532906"><time>2026-05-04T21:23:49Z</time></trkpt>
</trkseg></trk>
<trk>
<name>hfuwa28</name>
<cmt>q</cmt>
<desc>Wagnelée Sentier n°28 </desc>
<link href="https://chemins.be/wagnelee/sentier/28"/><trkseg>
<trkpt lat="50.522255" lon="4.532906"><time>2026-05-04T21:23:49Z</time></trkpt>
<trkpt lat="50.522504" lon="4.533487"><time>2026-05-04T21:33:49Z</time></trkpt>
</trkseg>
</trk>
<trk>
<name>hfuwa29</name>
<cmt>v</cmt>
<desc>Wagnelée Sentier n°29 </desc>
<link href="https://chemins.be/wagnelee/sentier/29"/><trkseg>
<trkpt lat="50.522411" lon="4.534686"><time>2026-05-04T21:13:49Z</time></trkpt>
<trkpt lat="50.522088" lon="4.534163"><time>2026-05-04T21:23:49Z</time></trkpt>
</trkseg>
</trk>
<trk>
<name>hfuwa3</name>
<cmt>r</cmt>
<desc>Wagnelée Chemin n°3 Chemin de Wavre</desc>
<link href="https://chemins.be/wagnelee/chemin/3"/><trkseg>
<trkpt lat="50.519654" lon="4.538667"><time>2026-05-04T21:13:49Z</time></trkpt>
<trkpt lat="50.520877" lon="4.538932"><time>2026-05-04T21:23:49Z</time></trkpt>
</trkseg></trk>
<trk>
<name>hfuwa3</name>
<cmt>v</cmt>
<desc>Wagnelée Chemin n°3 Chemin de Wavre</desc>
<link href="https://chemins.be/wagnelee/chemin/3"/><trkseg>
<trkpt lat="50.520877" lon="4.538932"><time>2026-05-04T21:23:49Z</time></trkpt>
<trkpt lat="50.524156" lon="4.539727"><time>2026-05-04T21:33:49Z</time></trkpt>
<trkpt lat="50.526070" lon="4.540904"><time>2026-05-04T21:43:49Z</time></trkpt>
<trkpt lat="50.527363" lon="4.542401"><time>2026-05-04T21:53:49Z</time></trkpt>
<trkpt lat="50.528853" lon="4.542946"><time>2026-05-04T22:03:49Z</time></trkpt>
</trkseg>
</trk>
<trk>
<name>hfuwa30</name>
<cmt>s</cmt>
<desc>Wagnelée Sentier n°30 </desc>
<link href="https://chemins.be/wagnelee/sentier/30"/><trkseg>
<trkpt lat="50.521466" lon="4.535458"><time>2026-05-04T21:13:49Z</time></trkpt>
<trkpt lat="50.522212" lon="4.535109"><time>2026-05-04T21:23:49Z</time></trkpt>
</trkseg>
</trk>
<trk>
<name>hfuwa31</name>
<cmt>d</cmt>
<desc>Wagnelée Sentier n°31 </desc>
<link href="https://chemins.be/wagnelee/sentier/31"/><trkseg>
<trkpt lat="50.522330" lon="4.527861"><time>2026-05-04T21:13:49Z</time></trkpt>
<trkpt lat="50.523612" lon="4.523832"><time>2026-05-04T21:23:49Z</time></trkpt>
<trkpt lat="50.525007" lon="4.523131"><time>2026-05-04T21:33:49Z</time></trkpt>
</trkseg>
</trk>
<trk>
<name>hfuwa32</name>
<cmt>d</cmt>
<desc>Wagnelée Chemin n°32 </desc>
<link href="https://chemins.be/wagnelee/chemin/32"/><trkseg>
<trkpt lat="50.528922" lon="4.526656"><time>2026-05-04T21:13:49Z</time></trkpt>
<trkpt lat="50.529273" lon="4.526516"><time>2026-05-04T21:23:49Z</time></trkpt>
</trkseg>
</trk>
<trk>
<name>hfuwa33</name>
<cmt>s</cmt>
<desc>Wagnelée Sentier n°33 </desc>
<link href="https://chemins.be/wagnelee/sentier/33"/><trkseg>
<trkpt lat="50.515772" lon="4.536064"><time>2026-05-04T21:13:49Z</time></trkpt>
<trkpt lat="50.515840" lon="4.536265"><time>2026-05-04T21:23:49Z</time></trkpt>
<trkpt lat="50.517718" lon="4.537166"><time>2026-05-04T21:33:49Z</time></trkpt>
</trkseg>
</trk>
<trk>
<name>hfuwa34</name>
<cmt>q</cmt>
<desc>Wagnelée Sentier n°34 Chemin de Beurre</desc>
<link href="https://chemins.be/wagnelee/sentier/34"/><trkseg>
<trkpt lat="50.515205" lon="4.534098"><time>2026-05-04T21:13:49Z</time></trkpt>
<trkpt lat="50.515251" lon="4.534105"><time>2026-05-04T21:23:49Z</time></trkpt>
<trkpt lat="50.516306" lon="4.532381"><time>2026-05-04T21:33:49Z</time></trkpt>
<trkpt lat="50.516293" lon="4.532159"><time>2026-05-04T21:43:49Z</time></trkpt>
</trkseg>
</trk>
<trk>
<name>hfuwa4</name>
<cmt>r</cmt>
<desc>Wagnelée Chemin n°4 Rue Longpré / chemin 60</desc>
<link href="https://chemins.be/wagnelee/chemin/4"/><trkseg>
<trkpt lat="50.518165" lon="4.542596"><time>2026-05-04T21:13:49Z</time></trkpt>
<trkpt lat="50.519262" lon="4.542219"><time>2026-05-04T21:23:49Z</time></trkpt>
<trkpt lat="50.519622" lon="4.541896"><time>2026-05-04T21:33:49Z</time></trkpt>
</trkseg></trk>
<trk>
<name>hfuwa4</name>
<cmt>v</cmt>
<desc>Wagnelée Chemin n°4 Rue Longpré / chemin 60</desc>
<link href="https://chemins.be/wagnelee/chemin/4"/><trkseg>
<trkpt lat="50.519622" lon="4.541896"><time>2026-05-04T21:33:49Z</time></trkpt>
<trkpt lat="50.520296" lon="4.542279"><time>2026-05-04T21:43:49Z</time></trkpt>
<trkpt lat="50.521724" lon="4.543215"><time>2026-05-04T21:53:49Z</time></trkpt>
<trkpt lat="50.526246" lon="4.543119"><time>2026-05-04T22:03:49Z</time></trkpt>
<trkpt lat="50.527362" lon="4.542390"><time>2026-05-04T22:13:49Z</time></trkpt>
<trkpt lat="50.529051" lon="4.542890"><time>2026-05-04T22:23:49Z</time></trkpt>
<trkpt lat="50.530805" lon="4.542643"><time>2026-05-04T22:33:49Z</time></trkpt>
<trkpt lat="50.533187" lon="4.542990"><time>2026-05-04T22:43:49Z</time></trkpt>
</trkseg>
</trk>
<trk>
<name>hfuwa8</name>
<cmt>v</cmt>
<desc>Wagnelée Chemin n°8 </desc>
<link href="https://chemins.be/wagnelee/chemin/8"/><trkseg>
<trkpt lat="50.520852" lon="4.530704"><time>2026-05-04T21:13:49Z</time></trkpt>
<trkpt lat="50.521141" lon="4.529972"><time>2026-05-04T21:23:49Z</time></trkpt>
<trkpt lat="50.521195" lon="4.529549"><time>2026-05-04T21:33:49Z</time></trkpt>
<trkpt lat="50.521413" lon="4.527998"><time>2026-05-04T21:43:49Z</time></trkpt>
<trkpt lat="50.521479" lon="4.525897"><time>2026-05-04T21:53:49Z</time></trkpt>
<trkpt lat="50.521736" lon="4.523426"><time>2026-05-04T22:03:49Z</time></trkpt>
<trkpt lat="50.521632" lon="4.518847"><time>2026-05-04T22:13:49Z</time></trkpt>
</trkseg>
</trk>
<trk>
<name>hfuwa9bis</name>
<cmt>q</cmt>
<desc>Wagnelée Chemin n°9bis </desc>
<link href="https://chemins.be/wagnelee/chemin/9bis"/><trkseg>
<trkpt lat="50.529761" lon="4.531130"><time>2026-05-04T21:13:49Z</time></trkpt>
<trkpt lat="50.529596" lon="4.532779"><time>2026-05-04T21:23:49Z</time></trkpt>
<trkpt lat="50.529979" lon="4.535827"><time>2026-05-04T21:33:49Z</time></trkpt>
<trkpt lat="50.530001" lon="4.538874"><time>2026-05-04T21:43:49Z</time></trkpt>
</trkseg></trk>
<trk>
<name>hfuwa9bis</name>
<cmt>v</cmt>
<desc>Wagnelée Chemin n°9bis </desc>
<link href="https://chemins.be/wagnelee/chemin/9bis"/><trkseg>
<trkpt lat="50.530001" lon="4.538874"><time>2026-05-04T21:43:49Z</time></trkpt>
<trkpt lat="50.530859" lon="4.542586"><time>2026-05-04T21:53:49Z</time></trkpt>
</trkseg>
</trk>
<trk>
<name>hfuwai1</name>
<cmt>q</cmt>
<desc>Wagnelée Sentier n°i1 </desc>
<link href="https://chemins.be/wagnelee/sentier/i1"/><trkseg>
<trkpt lat="50.521814" lon="4.536602"><time>2026-05-04T21:13:49Z</time></trkpt>
<trkpt lat="50.521222" lon="4.536092"><time>2026-05-04T21:23:49Z</time></trkpt>
</trkseg>
</trk>
<trk>
<name>hfuwai2</name>
<cmt>v</cmt>
<desc>Wagnelée Sentier n°i2 </desc>
<link href="https://chemins.be/wagnelee/sentier/i2"/><trkseg>
<trkpt lat="50.522242" lon="4.532965"><time>2026-05-04T21:13:49Z</time></trkpt>
<trkpt lat="50.522053" lon="4.533402"><time>2026-05-04T21:23:49Z</time></trkpt>
<trkpt lat="50.522241" lon="4.533769"><time>2026-05-04T21:33:49Z</time></trkpt>
</trkseg>
</trk>
<trk>
<name>hfuwai7</name>
<cmt>v</cmt>
<desc>Wagnelée Chemin n°i7 </desc>
<link href="https://chemins.be/wagnelee/chemin/i7"/><trkseg>
<trkpt lat="50.526094" lon="4.516887"><time>2026-05-04T21:13:49Z</time></trkpt>
<trkpt lat="50.524096" lon="4.518263"><time>2026-05-04T21:23:49Z</time></trkpt>
<trkpt lat="50.521830" lon="4.518791"><time>2026-05-04T21:33:49Z</time></trkpt>
<trkpt lat="50.520572" lon="4.518195"><time>2026-05-04T21:43:49Z</time></trkpt>
</trkseg>
</trk>
<trk>
<name>hfuwap1</name>
<cmt>r</cmt>
<desc>Wagnelée Chemin particulier n°p1 Rue Courte</desc>
<link href="https://chemins.be/wagnelee/chemin/p1"/><trkseg>
<trkpt lat="50.514669" lon="4.535279"><time>2026-05-04T21:13:49Z</time></trkpt>
<trkpt lat="50.514326" lon="4.536025"><time>2026-05-04T21:23:49Z</time></trkpt>
</trkseg>
</trk>
</gpx>